createdAt,value
2022-10-26T00:03:00.460Z,90.90
2022-10-26T00:08:02.247Z,90.56
2022-10-26T00:13:05.293Z,90.95
2022-10-26T00:18:06.830Z,90.31
2022-10-26T00:23:08.595Z,90.94
2022-10-26T00:28:10.110Z,90.94
2022-10-26T00:33:13.518Z,90.48
2022-10-26T00:38:15.266Z,90.82
2022-10-26T00:43:34.390Z,91.53
2022-10-26T00:48:38.680Z,91.44
2022-10-26T00:53:40.347Z,91.17
2022-10-26T00:58:42.419Z,91.59
2022-10-26T01:03:45.034Z,90.77
2022-10-26T01:08:46.639Z,90.79
2022-10-26T01:13:48.785Z,92.94
2022-10-26T01:18:52.926Z,92.28
2022-10-26T01:24:09.407Z,92.84
2022-10-26T01:29:40.315Z,93.30
2022-10-26T01:34:48.944Z,91.70
2022-10-26T01:40:16.774Z,91.71
2022-10-26T01:45:18.803Z,91.17
2022-10-26T01:50:20.712Z,91.43
2022-10-26T01:55:40.966Z,92.26
2022-10-26T02:00:52.311Z,92.59
2022-10-26T02:06:23.263Z,90.64
2022-10-26T02:11:37.219Z,92.46
2022-10-26T02:16:49.565Z,90.87
2022-10-26T02:21:55.065Z,91.10
2022-10-26T02:26:57.071Z,92.45
2022-10-26T02:31:59.491Z,90.92
2022-10-26T02:37:02.421Z,91.96
2022-10-26T02:42:05.595Z,90.85
2022-10-26T02:47:07.211Z,90.36
2022-10-26T02:52:18.588Z,92.05
2022-10-26T02:57:40.223Z,91.38
2022-10-26T03:02:46.171Z,90.63
2022-10-26T03:07:50.020Z,91.92
2022-10-26T03:12:52.406Z,91.04
2022-10-26T03:17:54.026Z,91.78
2022-10-26T03:22:57.051Z,91.14
2022-10-26T03:28:00.480Z,91.29
2022-10-26T03:33:01.976Z,91.29
2022-10-26T03:38:03.526Z,91.46
2022-10-26T03:43:05.054Z,91.22
2022-10-26T03:48:06.601Z,90.93
2022-10-26T03:53:08.502Z,90.47
2022-10-26T03:58:10.087Z,90.32
2022-10-26T04:03:11.582Z,89.96
2022-10-26T04:08:13.165Z,90.81
2022-10-26T04:13:14.738Z,90.44
2022-10-26T04:18:16.314Z,90.81
2022-10-26T04:23:18.948Z,91.19
2022-10-26T04:28:21.486Z,91.58
2022-10-26T04:33:23.014Z,90.59
2022-10-26T04:38:24.494Z,90.92
2022-10-26T04:43:26.005Z,92.00
2022-10-26T04:48:27.521Z,91.62
2022-10-26T04:53:29.015Z,91.39
2022-10-26T04:58:30.715Z,90.46
2022-10-26T05:03:32.214Z,91.42
2022-10-26T05:08:33.731Z,92.20
2022-10-26T05:13:35.211Z,93.88
2022-10-26T05:18:36.874Z,93.28
2022-10-26T05:23:38.405Z,91.41
2022-10-26T05:28:39.884Z,91.35
2022-10-26T05:33:41.384Z,91.78
2022-10-26T05:38:42.876Z,93.24
2022-10-26T05:43:47.285Z,91.94
2022-10-26T05:48:48.778Z,91.28
2022-10-26T05:53:54.278Z,91.90
2022-10-26T05:58:56.035Z,90.97
2022-10-26T06:04:07.649Z,91.78
2022-10-26T06:09:11.450Z,90.90
2022-10-26T06:14:13.174Z,91.09
2022-10-26T06:19:17.301Z,91.79
2022-10-26T06:24:41.502Z,91.57
2022-10-26T06:30:02.178Z,91.63
2022-10-26T06:35:25.300Z,91.29
2022-10-26T06:40:27.027Z,91.04
2022-10-26T06:45:29.069Z,90.45
2022-10-26T06:50:38.493Z,90.60
2022-10-26T06:55:44.640Z,91.49
2022-10-26T07:00:48.575Z,90.65
2022-10-26T07:05:50.137Z,90.95
2022-10-26T07:10:51.695Z,90.70
2022-10-26T07:15:53.239Z,90.23
2022-10-26T07:20:54.768Z,90.70
2022-10-26T07:25:59.535Z,89.95
2022-10-26T07:31:01.171Z,89.60
2022-10-26T07:36:02.854Z,89.78
2022-10-26T07:41:04.901Z,89.36
2022-10-26T07:46:06.406Z,89.03
2022-10-26T07:51:08.381Z,88.57
2022-10-26T07:56:10.694Z,88.44
2022-10-26T08:01:13.962Z,89.73
2022-10-26T08:06:15.531Z,89.66
2022-10-26T08:11:17.460Z,89.93
2022-10-26T08:16:19.159Z,89.25
2022-10-26T08:21:35.738Z,89.97
2022-10-26T08:26:38.017Z,90.47
2022-10-26T08:31:39.550Z,90.74
2022-10-26T08:36:41.122Z,90.64
2022-10-26T08:41:46.864Z,90.15
2022-10-26T08:46:53.459Z,89.67
2022-10-26T08:52:00.460Z,89.77
2022-10-26T08:57:10.234Z,89.64
2022-10-26T09:02:16.528Z,89.60
2022-10-26T09:07:25.940Z,89.85
2022-10-26T09:12:47.776Z,89.78
2022-10-26T09:18:26.414Z,89.88
2022-10-26T09:23:48.142Z,90.19
2022-10-26T09:28:49.745Z,89.34
2022-10-26T09:33:51.718Z,89.66
2022-10-26T09:39:17.590Z,89.30
2022-10-26T09:44:34.929Z,89.21
2022-10-26T09:49:48.660Z,89.37
2022-10-26T09:54:50.292Z,89.78
2022-10-26T09:59:52.603Z,90.03
2022-10-26T10:04:54.238Z,90.32
2022-10-26T10:10:27.836Z,89.42
2022-10-26T10:15:29.332Z,89.43
2022-10-26T10:20:32.462Z,90.15
2022-10-26T10:25:36.217Z,89.98
2022-10-26T10:30:37.997Z,90.20
2022-10-26T10:35:48.338Z,90.04
2022-10-26T10:41:02.536Z,90.31
2022-10-26T10:46:04.191Z,89.55
2022-10-26T10:51:12.999Z,89.68
2022-10-26T10:56:34.156Z,89.47
2022-10-26T11:01:40.762Z,88.10
2022-10-26T11:06:43.571Z,87.81
2022-10-26T11:11:48.279Z,87.13
2022-10-26T11:16:56.192Z,86.85
2022-10-26T11:21:57.729Z,86.27
2022-10-26T11:27:18.114Z,85.40
2022-10-26T11:32:23.161Z,85.40
2022-10-26T11:37:37.658Z,84.19
2022-10-26T11:42:51.258Z,84.54
2022-10-26T11:47:57.464Z,83.61
2022-10-26T11:53:09.362Z,82.59
2022-10-26T11:58:11.762Z,82.16
2022-10-26T12:03:17.422Z,82.22
2022-10-26T12:08:24.598Z,81.69
2022-10-26T12:13:47.849Z,81.18
2022-10-26T12:18:56.768Z,79.95
2022-10-26T12:24:04.959Z,77.25
2022-10-26T12:29:06.373Z,77.58
2022-10-26T12:34:15.793Z,75.56
2022-10-26T12:39:40.608Z,74.77
2022-10-26T12:44:48.342Z,73.59
2022-10-26T12:50:19.687Z,75.10
2022-10-26T12:55:51.319Z,74.68
2022-10-26T13:01:08.716Z,74.60
2022-10-26T13:06:41.190Z,75.21
2022-10-26T13:11:51.621Z,73.70
2022-10-26T13:16:53.277Z,74.05
2022-10-26T13:21:58.337Z,74.37
2022-10-26T13:27:05.577Z,74.22
2022-10-26T13:32:07.110Z,75.51
2022-10-26T13:37:21.692Z,75.60
2022-10-26T13:42:27.728Z,73.80
2022-10-26T13:47:33.425Z,73.85
2022-10-26T13:52:41.365Z,73.20
2022-10-26T13:57:44.486Z,74.11
2022-10-26T14:02:46.012Z,73.32
2022-10-26T14:08:00.113Z,72.41
2022-10-26T14:13:07.566Z,73.09
2022-10-26T14:18:15.985Z,72.91
2022-10-26T14:23:47.291Z,73.09
2022-10-26T14:28:51.565Z,76.36
2022-10-26T14:33:54.383Z,77.17
2022-10-26T14:39:04.505Z,77.90
2022-10-26T14:44:16.636Z,77.95
2022-10-26T14:49:25.068Z,77.85
2022-10-26T14:54:28.308Z,78.06
2022-10-26T14:59:31.159Z,78.40
2022-10-26T15:04:37.599Z,78.37
2022-10-26T15:09:41.747Z,78.58
2022-10-26T15:14:43.385Z,78.50
2022-10-26T15:19:45.201Z,78.94
2022-10-26T15:24:51.827Z,80.43
2022-10-26T15:30:16.545Z,80.06
2022-10-26T15:35:18.009Z,80.31
2022-10-26T15:40:19.872Z,81.46
2022-10-26T15:45:26.860Z,81.41
2022-10-26T15:50:28.884Z,82.71
2022-10-26T15:55:30.607Z,84.29
2022-10-26T16:00:32.075Z,83.68
2022-10-26T16:05:33.596Z,82.75
2022-10-26T16:10:35.107Z,82.81
2022-10-26T16:15:37.009Z,83.36
2022-10-26T16:20:38.615Z,82.72
2022-10-26T16:25:43.938Z,83.47
2022-10-26T16:30:45.580Z,82.37
2022-10-26T16:35:55.454Z,85.76
2022-10-26T16:41:17.066Z,84.75
2022-10-26T16:46:20.200Z,84.74
2022-10-26T16:51:23.639Z,84.54
2022-10-26T16:56:27.715Z,86.10
2022-10-26T17:01:29.449Z,85.62
2022-10-26T17:06:31.039Z,84.28
2022-10-26T17:11:32.628Z,85.94
2022-10-26T17:16:36.986Z,84.85
2022-10-26T17:21:38.557Z,85.82
2022-10-26T17:26:40.687Z,86.07
2022-10-26T17:31:42.230Z,85.91
2022-10-26T17:36:43.725Z,85.24
2022-10-26T17:41:45.556Z,86.51
2022-10-26T17:46:47.145Z,87.13
2022-10-26T17:51:48.698Z,85.88
2022-10-26T17:56:50.211Z,87.67
2022-10-26T18:01:51.841Z,86.24
2022-10-26T18:06:53.501Z,85.62
2022-10-26T18:11:56.063Z,85.41
2022-10-26T18:16:57.731Z,85.47
2022-10-26T18:22:00.447Z,85.03
2022-10-26T18:27:01.970Z,86.82
2022-10-26T18:32:03.555Z,87.26
2022-10-26T18:37:05.077Z,87.58
2022-10-26T18:42:06.580Z,88.31
2022-10-26T18:47:08.089Z,87.18
2022-10-26T18:52:09.578Z,87.52
2022-10-26T18:57:11.114Z,88.74
2022-10-26T19:02:15.405Z,87.80
2022-10-26T19:07:17.002Z,86.92
2022-10-26T19:12:18.559Z,88.76
2022-10-26T19:17:21.947Z,88.14
2022-10-26T19:22:23.434Z,87.90
2022-10-26T19:27:24.928Z,89.15
2022-10-26T19:32:29.499Z,88.82
2022-10-26T19:37:31.178Z,89.20
2022-10-26T19:42:32.738Z,89.97
2022-10-26T19:47:34.321Z,90.17
2022-10-26T19:52:36.484Z,88.62
2022-10-26T19:57:38.115Z,88.86
2022-10-26T20:02:39.648Z,90.17
2022-10-26T20:07:41.129Z,90.49
2022-10-26T20:12:42.621Z,91.50
2022-10-26T20:17:44.092Z,89.84
2022-10-26T20:22:45.747Z,90.14
2022-10-26T20:27:48.103Z,91.27
2022-10-26T20:32:49.799Z,91.33
2022-10-26T20:37:52.291Z,91.29
2022-10-26T20:42:54.979Z,91.01
2022-10-26T20:47:58.295Z,92.53
2022-10-26T20:53:15.556Z,92.35
2022-10-26T20:58:19.761Z,91.67
2022-10-26T21:03:21.359Z,90.71
2022-10-26T21:08:23.001Z,90.69
2022-10-26T21:13:24.610Z,92.11
2022-10-26T21:18:26.274Z,93.22
2022-10-26T21:23:31.716Z,92.30
2022-10-26T21:28:35.583Z,90.74
2022-10-26T21:33:37.503Z,90.98
2022-10-26T21:38:40.530Z,90.88
2022-10-26T21:43:43.563Z,91.34
2022-10-26T21:48:45.745Z,92.52
2022-10-26T21:53:48.075Z,92.13
2022-10-26T21:58:49.669Z,91.45
2022-10-26T22:03:51.276Z,92.68
2022-10-26T22:08:55.899Z,91.97
2022-10-26T22:13:57.490Z,91.95
2022-10-26T22:19:05.407Z,92.10
2022-10-26T22:24:07.638Z,93.15
2022-10-26T22:29:09.164Z,93.00
2022-10-26T22:34:15.735Z,92.37
2022-10-26T22:39:17.893Z,93.08
2022-10-26T22:44:19.391Z,92.70
2022-10-26T22:49:20.864Z,93.24
2022-10-26T22:54:22.366Z,93.17
2022-10-26T22:59:23.840Z,94.12
2022-10-26T23:04:25.356Z,93.87
2022-10-26T23:09:26.857Z,94.51
2022-10-26T23:14:28.411Z,95.28
2022-10-26T23:19:29.912Z,94.87
2022-10-26T23:24:31.425Z,93.86
2022-10-26T23:29:33.060Z,94.22
2022-10-26T23:34:34.589Z,94.78
2022-10-26T23:39:36.106Z,95.07
2022-10-26T23:44:37.638Z,94.57
2022-10-26T23:49:39.124Z,95.33
2022-10-26T23:54:40.804Z,95.00
2022-10-26T23:59:42.361Z,95.48
